createdAt,value
2019-02-18T00:01:20.255Z,52.10
2019-02-18T00:03:54.004Z,49.93
2019-02-18T00:06:27.428Z,51.63
2019-02-18T00:09:00.876Z,53.90
2019-02-18T00:11:34.309Z,52.03
2019-02-18T00:14:07.762Z,48.20
2019-02-18T00:16:41.184Z,53.73
2019-02-18T00:19:14.636Z,50.13
2019-02-18T00:21:48.142Z,52.60
2019-02-18T00:24:21.784Z,52.47
2019-02-18T00:26:55.209Z,47.27
2019-02-18T00:29:28.667Z,49.87
2019-02-18T00:32:02.081Z,49.47
2019-02-18T00:34:35.522Z,48.67
2019-02-18T00:37:09.355Z,47.53
2019-02-18T00:39:42.793Z,48.53
2019-02-18T00:42:16.230Z,53.13
2019-02-18T00:44:49.670Z,49.23
2019-02-18T00:47:23.105Z,49.67
2019-02-18T00:49:56.541Z,53.50
2019-02-18T00:52:29.989Z,54.27
2019-02-18T00:55:03.919Z,48.83
2019-02-18T00:57:37.344Z,49.90
2019-02-18T01:00:16.281Z,49.73
2019-02-18T01:02:49.715Z,50.83
2019-02-18T01:05:23.159Z,52.77
2019-02-18T01:07:56.756Z,49.30
2019-02-18T01:10:30.201Z,46.73
2019-02-18T01:13:03.641Z,46.87
2019-02-18T01:15:37.087Z,50.90
2019-02-18T01:18:10.513Z,53.13
2019-02-18T01:20:44.023Z,46.70
2019-02-18T01:23:17.454Z,50.10
2019-02-18T01:25:50.906Z,51.00
2019-02-18T01:28:24.330Z,52.27
2019-02-18T01:30:58.057Z,48.20
2019-02-18T01:33:31.481Z,49.03
2019-02-18T01:36:05.192Z,49.93
2019-02-18T01:38:39.541Z,50.00
2019-02-18T01:41:12.976Z,52.63
2019-02-18T01:43:46.410Z,49.77
2019-02-18T01:46:19.853Z,52.27
2019-02-18T01:48:53.285Z,51.77
2019-02-18T01:51:26.735Z,47.07
2019-02-18T01:54:00.163Z,50.40
2019-02-18T01:56:33.596Z,48.70
2019-02-18T01:59:07.029Z,53.93
2019-02-18T02:01:40.473Z,51.27
2019-02-18T02:04:13.910Z,60.03
2019-02-18T02:06:47.349Z,72.37
2019-02-18T02:09:20.777Z,73.77
2019-02-18T02:11:54.285Z,65.37
2019-02-18T02:14:27.714Z,105.07
2019-02-18T02:17:01.178Z,76.10
2019-02-18T02:19:34.609Z,115.17
2019-02-18T02:22:08.049Z,93.10
2019-02-18T02:24:41.477Z,105.87
2019-02-18T02:27:14.929Z,107.30
2019-02-18T02:29:48.347Z,96.50
2019-02-18T02:32:21.782Z,97.40
2019-02-18T02:34:55.225Z,80.47
2019-02-18T02:37:28.679Z,135.90
2019-02-18T02:40:02.108Z,117.40
2019-02-18T02:42:35.558Z,169.47
2019-02-18T02:45:09.433Z,134.13
2019-02-18T02:47:42.876Z,176.23
2019-02-18T02:50:16.306Z,217.93
2019-02-18T02:52:49.768Z,175.80
2019-02-18T02:55:23.199Z,193.93
2019-02-18T02:57:56.654Z,156.67
2019-02-18T03:00:30.094Z,266.20
2019-02-18T03:03:03.615Z,263.60
2019-02-18T03:05:37.105Z,94.80
2019-02-18T03:08:19.982Z,126.73
2019-02-18T03:10:45.701Z,124.70
2019-02-18T03:13:19.139Z,93.73
2019-02-18T03:15:52.577Z,106.13
2019-02-18T03:18:26.025Z,156.67
2019-02-18T03:20:59.444Z,84.63
2019-02-18T03:23:33.361Z,146.23
2019-02-18T03:26:06.786Z,181.23
2019-02-18T03:28:43.300Z,86.90
2019-02-18T03:31:19.805Z,99.90
2019-02-18T03:33:58.987Z,92.20
2019-02-18T03:36:32.412Z,99.50
2019-02-18T03:39:06.738Z,117.47
2019-02-18T03:41:40.975Z,76.23
2019-02-18T03:44:14.798Z,101.73
2019-02-18T03:46:50.618Z,106.77
2019-02-18T03:49:23.399Z,144.10
2019-02-18T03:51:56.827Z,127.27
2019-02-18T03:54:30.288Z,88.20
2019-02-18T03:57:03.762Z,79.47
2019-02-18T03:59:37.204Z,75.30
2019-02-18T04:02:10.642Z,96.63
2019-02-18T04:04:44.151Z,173.27
2019-02-18T04:07:17.573Z,149.83
2019-02-18T04:09:51.028Z,185.03
2019-02-18T04:12:24.461Z,118.30
2019-02-18T04:14:57.913Z,75.43
2019-02-18T04:17:31.350Z,175.90
2019-02-18T04:20:06.325Z,100.23
2019-02-18T04:22:39.753Z,102.63
2019-02-18T04:25:13.194Z,74.10
2019-02-18T04:27:46.632Z,136.27
2019-02-18T04:30:20.062Z,77.97
2019-02-18T04:32:53.492Z,99.67
2019-02-18T04:35:26.940Z,107.30
2019-02-18T04:38:00.370Z,68.50
2019-02-18T04:40:33.807Z,75.23
2019-02-18T04:43:07.231Z,107.77
2019-02-18T04:45:40.674Z,78.90
2019-02-18T04:48:14.101Z,67.97
2019-02-18T04:50:47.537Z,66.83
2019-02-18T04:53:20.965Z,89.27
2019-02-18T04:55:54.412Z,87.03
2019-02-18T04:58:27.835Z,80.50
2019-02-18T05:01:02.934Z,77.70
2019-02-18T05:03:36.432Z,63.10
2019-02-18T05:06:09.875Z,78.90
2019-02-18T05:08:43.297Z,74.77
2019-02-18T05:11:16.743Z,87.33
2019-02-18T05:13:50.162Z,79.73
2019-02-18T05:16:23.597Z,63.03
2019-02-18T05:18:57.016Z,83.30
2019-02-18T05:21:31.998Z,67.73
2019-02-18T05:24:05.449Z,58.27
2019-02-18T05:26:38.942Z,58.10
2019-02-18T05:29:12.375Z,63.20
2019-02-18T05:31:45.822Z,57.43
2019-02-18T05:34:19.244Z,63.10
2019-02-18T05:36:52.748Z,63.03
2019-02-18T05:39:26.181Z,63.07
2019-02-18T05:41:59.631Z,78.23
2019-02-18T05:44:33.056Z,70.00
2019-02-18T05:47:06.496Z,53.67
2019-02-18T05:49:39.921Z,66.30
2019-02-18T05:52:13.377Z,59.13
2019-02-18T05:54:46.812Z,62.27
2019-02-18T05:57:22.784Z,58.20
2019-02-18T05:59:55.400Z,81.17
2019-02-18T06:02:28.848Z,65.60
2019-02-18T06:05:04.281Z,112.10
2019-02-18T06:07:37.721Z,60.83
2019-02-18T06:10:11.173Z,68.07
2019-02-18T06:12:44.678Z,54.13
2019-02-18T06:15:18.301Z,101.20
2019-02-18T06:17:51.738Z,102.10
2019-02-18T06:20:25.176Z,84.27
2019-02-18T06:22:58.613Z,65.40
2019-02-18T06:25:32.048Z,55.33
2019-02-18T06:28:05.491Z,57.07
2019-02-18T06:30:38.908Z,48.83
2019-02-18T06:33:12.361Z,64.77
2019-02-18T06:35:45.797Z,52.33
2019-02-18T06:38:19.269Z,54.10
2019-02-18T06:40:52.696Z,52.67
2019-02-18T06:43:26.205Z,45.83
2019-02-18T06:46:17.295Z,44.63
2019-02-18T06:48:52.375Z,49.13
2019-02-18T06:51:45.146Z,58.53
2019-02-18T06:54:18.589Z,66.03
2019-02-18T06:56:56.357Z,61.07
2019-02-18T06:59:31.456Z,58.87
2019-02-18T07:02:09.501Z,48.87
2019-02-18T07:04:47.213Z,58.60
2019-02-18T07:07:25.322Z,51.87
2019-02-18T07:10:03.550Z,78.57
2019-02-18T07:12:38.615Z,74.33
2019-02-18T07:15:12.115Z,51.50
2019-02-18T07:17:45.541Z,51.97
2019-02-18T07:20:19.052Z,47.47
2019-02-18T07:22:52.523Z,50.17
2019-02-18T07:25:25.981Z,49.00
2019-02-18T07:27:59.409Z,44.73
2019-02-18T07:30:32.853Z,46.47
2019-02-18T07:33:06.277Z,46.40
2019-02-18T07:35:39.721Z,45.70
2019-02-18T07:38:13.151Z,45.43
2019-02-18T07:40:46.611Z,46.20
2019-02-18T07:43:20.042Z,44.63
2019-02-18T07:45:53.481Z,45.97
2019-02-18T07:48:26.900Z,50.20
2019-02-18T07:51:00.397Z,54.00
2019-02-18T07:53:33.831Z,44.60
2019-02-18T07:56:07.293Z,47.63
2019-02-18T07:58:40.723Z,49.07
2019-02-18T08:01:14.163Z,51.53
2019-02-18T08:03:47.589Z,56.50
2019-02-18T08:06:21.044Z,59.67
2019-02-18T08:08:54.467Z,74.33
2019-02-18T08:11:27.911Z,70.97
2019-02-18T08:14:01.409Z,63.00
2019-02-18T08:16:34.912Z,59.03
2019-02-18T08:19:08.346Z,57.27
2019-02-18T08:21:41.790Z,65.27
2019-02-18T08:24:15.232Z,49.57
2019-02-18T08:26:48.670Z,59.27
2019-02-18T08:29:22.096Z,73.27
2019-02-18T08:31:55.537Z,59.73
2019-02-18T08:34:28.958Z,58.97
2019-02-18T08:37:02.401Z,61.77
2019-02-18T08:39:35.829Z,53.70
2019-02-18T08:42:09.259Z,58.60
2019-02-18T08:44:42.691Z,59.17
2019-02-18T08:47:16.124Z,62.70
2019-02-18T08:49:49.552Z,60.37
2019-02-18T08:52:23.012Z,61.23
2019-02-18T08:54:56.983Z,57.63
2019-02-18T08:57:30.663Z,63.17
2019-02-18T09:00:06.998Z,59.47
2019-02-18T09:02:40.424Z,62.53
2019-02-18T09:05:13.982Z,61.83
2019-02-18T09:07:47.475Z,58.17
2019-02-18T09:10:20.911Z,61.00
2019-02-18T09:12:54.352Z,63.87
2019-02-18T09:15:27.777Z,58.53
2019-02-18T09:18:01.214Z,65.10
2019-02-18T09:20:34.647Z,61.27
2019-02-18T09:23:15.530Z,59.37
2019-02-18T09:25:50.589Z,58.20
2019-02-18T09:28:24.029Z,61.87
2019-02-18T09:30:57.513Z,55.70
2019-02-18T09:33:30.960Z,60.87
2019-02-18T09:36:04.465Z,58.60
2019-02-18T09:38:37.911Z,60.03
2019-02-18T09:41:11.346Z,57.37
2019-02-18T09:43:44.772Z,58.07
2019-02-18T09:46:18.191Z,63.53
2019-02-18T09:48:51.641Z,56.47
2019-02-18T09:51:25.065Z,62.33
2019-02-18T09:53:58.579Z,62.70
2019-02-18T09:56:32.080Z,64.77
2019-02-18T09:59:05.516Z,75.60
2019-02-18T10:01:38.938Z,56.20
2019-02-18T10:04:12.374Z,68.40
2019-02-18T10:06:45.796Z,72.77
2019-02-18T10:09:19.252Z,66.40
2019-02-18T10:11:52.732Z,65.63
2019-02-18T10:14:26.181Z,71.50
2019-02-18T10:16:59.607Z,68.73
2019-02-18T10:19:33.060Z,72.13
2019-02-18T10:22:06.493Z,66.10
2019-02-18T10:24:50.247Z,71.93
2019-02-18T10:27:15.068Z,64.17
2019-02-18T10:29:48.512Z,64.60
2019-02-18T10:32:21.937Z,73.33
2019-02-18T10:34:55.376Z,65.03
2019-02-18T10:37:28.865Z,62.97
2019-02-18T10:40:02.563Z,63.67
2019-02-18T10:42:35.994Z,59.07
2019-02-18T10:45:13.560Z,65.17
2019-02-18T10:47:46.974Z,63.70
2019-02-18T10:50:20.412Z,58.43
2019-02-18T10:52:53.840Z,61.03
2019-02-18T10:55:27.663Z,62.00
2019-02-18T10:58:01.084Z,67.27
2019-02-18T11:00:34.595Z,56.57
2019-02-18T11:03:08.018Z,61.43
2019-02-18T11:05:42.029Z,64.47
2019-02-18T11:08:15.460Z,60.70
2019-02-18T11:10:48.899Z,57.70
2019-02-18T11:13:22.394Z,61.43
2019-02-18T11:15:55.912Z,57.03
2019-02-18T11:18:29.340Z,58.80
2019-02-18T11:21:02.783Z,53.80
2019-02-18T11:23:36.202Z,58.30
2019-02-18T11:26:09.642Z,54.97
2019-02-18T11:28:43.071Z,56.00
2019-02-18T11:31:16.517Z,60.60
2019-02-18T11:33:50.408Z,52.60
2019-02-18T11:36:23.925Z,53.20
2019-02-18T11:38:57.345Z,55.00
2019-02-18T11:41:30.781Z,58.70
2019-02-18T11:44:04.783Z,65.00
2019-02-18T11:46:38.221Z,56.40
2019-02-18T11:49:11.640Z,62.10
2019-02-18T11:51:45.084Z,57.27
2019-02-18T11:54:18.513Z,54.27
2019-02-18T11:56:51.959Z,57.63
2019-02-18T11:59:25.394Z,53.50
2019-02-18T12:01:58.847Z,58.83
2019-02-18T12:04:32.344Z,56.10
2019-02-18T12:07:05.800Z,57.17
2019-02-18T12:09:39.309Z,57.17
2019-02-18T12:12:13.026Z,56.20
2019-02-18T12:14:46.450Z,53.80
2019-02-18T12:17:20.984Z,57.80
2019-02-18T12:19:55.211Z,71.13
2019-02-18T12:22:29.958Z,58.87
2019-02-18T12:25:03.459Z,52.07
2019-02-18T12:27:36.978Z,52.57
2019-02-18T12:30:17.807Z,57.60
2019-02-18T12:32:51.388Z,51.67
2019-02-18T12:35:31.102Z,57.60
2019-02-18T12:38:00.059Z,52.43
2019-02-18T12:40:33.492Z,46.53
2019-02-18T12:43:07.009Z,49.30
2019-02-18T12:45:40.449Z,50.73
2019-02-18T12:48:13.893Z,51.43
2019-02-18T12:50:47.329Z,72.20
2019-02-18T12:53:20.859Z,75.30
2019-02-18T12:55:54.429Z,70.57
2019-02-18T12:58:27.952Z,38.37
2019-02-18T13:01:01.387Z,32.40
2019-02-18T13:03:34.913Z,34.53
2019-02-18T13:06:08.421Z,31.03
2019-02-18T13:08:41.874Z,28.53
2019-02-18T13:11:15.376Z,33.10
2019-02-18T13:13:48.902Z,28.30
2019-02-18T13:16:22.409Z,31.30
2019-02-18T13:18:55.933Z,28.53
2019-02-18T13:21:29.437Z,27.33
2019-02-18T13:24:03.038Z,24.80
2019-02-18T13:26:36.540Z,22.80
2019-02-18T13:29:09.991Z,23.77
2019-02-18T13:31:43.501Z,22.67
2019-02-18T13:34:16.954Z,23.30
2019-02-18T13:36:50.382Z,21.63
2019-02-18T13:39:24.201Z,30.10
2019-02-18T13:41:57.633Z,28.90
2019-02-18T13:44:31.096Z,27.33
2019-02-18T13:47:04.909Z,28.10
2019-02-18T13:49:38.353Z,23.90
2019-02-18T13:52:11.939Z,22.63
2019-02-18T13:54:45.384Z,21.27
2019-02-18T13:57:18.816Z,18.93
2019-02-18T13:59:52.260Z,29.87
2019-02-18T14:02:25.770Z,25.93
2019-02-18T14:04:59.214Z,20.63
2019-02-18T14:07:32.788Z,25.70
2019-02-18T14:10:07.379Z,17.60
2019-02-18T14:12:41.425Z,17.53
2019-02-18T14:15:15.778Z,26.73
2019-02-18T14:17:50.577Z,22.53
2019-02-18T14:20:24.337Z,17.20
2019-02-18T14:22:58.142Z,17.40
2019-02-18T14:25:31.714Z,18.63
2019-02-18T14:28:05.273Z,23.70
2019-02-18T14:30:38.728Z,22.03
2019-02-18T14:33:12.176Z,21.27
2019-02-18T14:35:45.689Z,16.30
2019-02-18T14:38:19.184Z,21.23
2019-02-18T14:40:52.753Z,18.60
2019-02-18T14:43:26.232Z,20.77
2019-02-18T14:45:59.953Z,23.83
2019-02-18T14:48:33.420Z,19.00
2019-02-18T14:51:06.932Z,18.47
2019-02-18T14:53:40.352Z,25.83
2019-02-18T14:56:15.458Z,18.50
2019-02-18T14:58:48.957Z,19.53
2019-02-18T15:01:22.422Z,16.30
2019-02-18T15:03:55.916Z,21.43
2019-02-18T15:06:29.379Z,19.63
2019-02-18T15:09:03.276Z,20.97
2019-02-18T15:11:36.730Z,18.57
2019-02-18T15:14:10.220Z,21.83
2019-02-18T15:16:43.765Z,23.67
2019-02-18T15:19:17.673Z,26.23
2019-02-18T15:21:51.129Z,24.90
2019-02-18T15:24:24.640Z,24.53
2019-02-18T15:26:58.152Z,18.83
2019-02-18T15:29:31.589Z,19.13
2019-02-18T15:32:05.163Z,16.90
2019-02-18T15:34:38.669Z,19.90
2019-02-18T15:37:12.570Z,19.07
2019-02-18T15:39:46.005Z,25.23
2019-02-18T15:42:19.445Z,35.87
2019-02-18T15:44:52.949Z,28.93
2019-02-18T15:47:28.017Z,32.30
2019-02-18T15:50:01.446Z,31.67
2019-02-18T15:52:35.484Z,28.37
2019-02-18T15:55:10.154Z,27.40
2019-02-18T15:57:43.675Z,29.07
2019-02-18T16:00:25.737Z,27.30
2019-02-18T16:02:59.184Z,36.20
2019-02-18T16:05:32.688Z,33.27
2019-02-18T16:08:06.138Z,31.67
2019-02-18T16:10:39.570Z,36.13
2019-02-18T16:13:13.615Z,42.77
2019-02-18T16:15:47.126Z,31.13
2019-02-18T16:18:20.577Z,34.93
2019-02-18T16:20:54.013Z,37.77
2019-02-18T16:23:27.456Z,44.57
2019-02-18T16:26:00.892Z,48.50
2019-02-18T16:28:34.409Z,39.80
2019-02-18T16:31:07.842Z,38.67
2019-02-18T16:33:41.365Z,58.27
2019-02-18T16:36:14.809Z,51.13
2019-02-18T16:38:48.318Z,45.37
2019-02-18T16:41:21.827Z,47.70
2019-02-18T16:43:55.371Z,36.43
2019-02-18T16:46:29.389Z,33.17
2019-02-18T16:49:03.342Z,33.73
2019-02-18T16:51:36.849Z,32.47
2019-02-18T16:54:10.340Z,33.93
2019-02-18T16:56:43.800Z,34.53
2019-02-18T16:59:17.256Z,26.50
2019-02-18T17:01:53.653Z,34.87
2019-02-18T17:04:27.382Z,29.13
2019-02-18T17:07:01.192Z,30.13
2019-02-18T17:09:34.737Z,29.43
2019-02-18T17:12:08.173Z,28.10
2019-02-18T17:14:41.880Z,31.27
2019-02-18T17:17:15.613Z,32.00
2019-02-18T17:19:49.596Z,30.80
2019-02-18T17:22:23.030Z,33.10
2019-02-18T17:24:56.569Z,35.37
2019-02-18T17:27:30.053Z,35.50
2019-02-18T17:30:03.897Z,35.73
2019-02-18T17:32:37.327Z,34.87
2019-02-18T17:35:15.051Z,33.43
2019-02-18T17:37:48.561Z,26.43
2019-02-18T17:40:22.021Z,34.00
2019-02-18T17:42:55.722Z,32.07
2019-02-18T17:45:29.516Z,32.33
2019-02-18T17:48:02.977Z,31.13
2019-02-18T17:50:36.494Z,41.07
2019-02-18T17:53:10.312Z,37.50
2019-02-18T17:55:43.771Z,28.00
2019-02-18T17:58:17.321Z,29.80
2019-02-18T18:00:52.452Z,38.73
2019-02-18T18:03:25.966Z,32.23
2019-02-18T18:05:59.410Z,30.47
2019-02-18T18:08:32.913Z,38.23
2019-02-18T18:11:06.458Z,36.67
2019-02-18T18:13:39.986Z,28.60
2019-02-18T18:16:13.420Z,37.13
2019-02-18T18:18:46.860Z,29.83
2019-02-18T18:21:20.302Z,26.83
2019-02-18T18:23:53.727Z,32.07
2019-02-18T18:26:27.813Z,35.20
2019-02-18T18:29:01.263Z,31.00
2019-02-18T18:31:34.710Z,33.43
2019-02-18T18:34:08.157Z,34.80
2019-02-18T18:36:41.671Z,31.57
2019-02-18T18:39:15.107Z,39.40
2019-02-18T18:41:48.637Z,33.53
2019-02-18T18:44:22.069Z,34.73
2019-02-18T18:46:55.523Z,34.20
2019-02-18T18:49:28.949Z,31.67
2019-02-18T18:52:02.400Z,33.47
2019-02-18T18:54:35.834Z,31.40
2019-02-18T18:57:09.297Z,31.70
2019-02-18T18:59:43.410Z,33.07
2019-02-18T19:02:16.857Z,35.13
2019-02-18T19:04:50.297Z,31.27
2019-02-18T19:07:23.752Z,32.83
2019-02-18T19:09:57.765Z,33.53
2019-02-18T19:12:31.270Z,40.50
2019-02-18T19:15:07.125Z,38.57
2019-02-18T19:17:40.575Z,36.13
2019-02-18T19:20:14.304Z,37.67
2019-02-18T19:22:47.765Z,35.37
2019-02-18T19:25:21.193Z,36.97
2019-02-18T19:27:54.650Z,39.43
2019-02-18T19:30:30.799Z,36.90
2019-02-18T19:33:04.237Z,40.03
2019-02-18T19:35:37.665Z,32.97
2019-02-18T19:38:11.129Z,46.67
2019-02-18T19:40:44.626Z,51.83
2019-02-18T19:43:18.056Z,41.37
2019-02-18T19:45:51.497Z,49.87
2019-02-18T19:48:24.943Z,48.50
2019-02-18T19:50:58.369Z,50.17
2019-02-18T19:53:32.406Z,45.23
2019-02-18T19:56:05.829Z,49.73
2019-02-18T19:58:39.270Z,46.33
2019-02-18T20:01:12.697Z,49.67
2019-02-18T20:03:46.538Z,45.07
2019-02-18T20:06:19.969Z,37.03
2019-02-18T20:08:53.421Z,37.87
2019-02-18T20:11:26.862Z,40.00
2019-02-18T20:14:00.390Z,39.23
2019-02-18T20:16:33.815Z,49.10
2019-02-18T20:19:07.272Z,36.40
2019-02-18T20:21:40.696Z,51.27
2019-02-18T20:24:14.141Z,42.43
2019-02-18T20:26:47.946Z,39.97
2019-02-18T20:29:21.416Z,41.03
2019-02-18T20:31:54.858Z,41.13
2019-02-18T20:34:28.292Z,41.97
2019-02-18T20:37:02.395Z,44.17
2019-02-18T20:39:35.830Z,51.50
2019-02-18T20:42:09.275Z,44.15
2019-02-18T20:44:42.760Z,38.30
2019-02-18T20:47:16.208Z,42.00
2019-02-18T20:49:49.773Z,35.53
2019-02-18T20:52:23.270Z,35.20
2019-02-18T20:54:56.730Z,33.27
2019-02-18T20:57:30.187Z,32.37
2019-02-18T21:00:06.019Z,35.50
2019-02-18T21:02:39.439Z,32.10
2019-02-18T21:05:12.882Z,34.53
2019-02-18T21:07:46.377Z,37.93
2019-02-18T21:10:21.321Z,34.23
2019-02-18T21:12:54.748Z,33.50
2019-02-18T21:15:28.267Z,32.43
2019-02-18T21:18:01.755Z,36.57
2019-02-18T21:20:35.798Z,36.50
2019-02-18T21:23:09.305Z,35.63
2019-02-18T21:25:42.825Z,32.80
2019-02-18T21:28:16.254Z,34.50
2019-02-18T21:30:49.717Z,36.80
2019-02-18T21:33:23.216Z,37.67
2019-02-18T21:35:56.867Z,38.47
2019-02-18T21:38:30.287Z,36.40
2019-02-18T21:41:03.752Z,34.03
2019-02-18T21:43:37.172Z,34.97
2019-02-18T21:46:10.619Z,35.30
2019-02-18T21:48:44.043Z,34.27
2019-02-18T21:51:17.491Z,32.20
2019-02-18T21:53:51.296Z,32.30
2019-02-18T21:56:24.752Z,30.23
2019-02-18T21:58:58.172Z,33.70
2019-02-18T22:01:31.691Z,32.50
2019-02-18T22:04:05.180Z,32.77
2019-02-18T22:06:38.623Z,31.40
2019-02-18T22:09:12.049Z,44.30
2019-02-18T22:11:45.507Z,36.20
2019-02-18T22:14:18.998Z,40.33
2019-02-18T22:16:52.812Z,38.63
2019-02-18T22:19:26.250Z,44.97
2019-02-18T22:21:59.696Z,40.73
2019-02-18T22:24:33.198Z,38.93
2019-02-18T22:27:06.744Z,36.87
2019-02-18T22:29:40.165Z,38.30
2019-02-18T22:32:13.621Z,42.73
2019-02-18T22:34:47.039Z,37.87
2019-02-18T22:37:20.486Z,33.20
2019-02-18T22:39:54.283Z,36.40
2019-02-18T22:42:27.724Z,36.87
2019-02-18T22:45:01.166Z,37.80
2019-02-18T22:47:34.608Z,39.97
2019-02-18T22:50:10.491Z,35.77
2019-02-18T22:52:43.920Z,35.87
2019-02-18T22:55:17.339Z,38.57
2019-02-18T22:57:50.775Z,36.57
2019-02-18T23:00:28.922Z,39.53
2019-02-18T23:03:02.896Z,34.60
2019-02-18T23:05:36.318Z,37.63
2019-02-18T23:08:09.753Z,41.27
2019-02-18T23:10:43.181Z,36.37
2019-02-18T23:13:16.615Z,36.77
2019-02-18T23:15:50.056Z,41.83
2019-02-18T23:18:23.561Z,39.40
2019-02-18T23:20:56.993Z,36.47
2019-02-18T23:23:30.424Z,38.70
2019-02-18T23:26:04.337Z,35.83
2019-02-18T23:28:37.768Z,37.97
2019-02-18T23:31:11.197Z,36.23
2019-02-18T23:33:44.641Z,38.57
2019-02-18T23:36:18.061Z,42.77
2019-02-18T23:38:51.510Z,33.43
2019-02-18T23:41:26.048Z,33.63
2019-02-18T23:43:59.493Z,39.90
2019-02-18T23:46:32.930Z,36.77
2019-02-18T23:49:06.565Z,35.23
2019-02-18T23:51:40.003Z,34.57
2019-02-18T23:54:13.437Z,33.73
2019-02-18T23:56:46.860Z,33.03
2019-02-18T23:59:20.379Z,37.00
